Latest Weather Observations for Bradshaw

IDD60801

Issued at 7:35 pm CST Wednesday 26 November 2014 (issued every 30 minutes, with the page automatically refreshed every 10 minutes)

About weather observations | Map of weather stations | Latest weather observations for NT | Other Formats
Station Details ID: 014954 Name: BRADSHAW Lat: -14.94 Lon: 130.81 Height: 75.0 m
Data from the previous 72 hours. | See also: Recent months at Bradshaw
Date/Time
CST
Temp
°C
App
Temp
°C
Dew
Point
Rel
Hum
%
Delta-T
°C
Wind Press
QNH
hPa
Press
MSL
hPa
Rain
since 9 am
mm
Dir
 
Spd
km/h
Gust
km/h
Spd
kts
Gust
kts
26/07:30pm 32.0 36.3 21.2 52 7.3 CALM 0 0 0 0 1007.3 - 0.0
26/07:00pm 32.4 35.3 21.0 51 7.7 SSW 7 11 4 6 1006.7 - 0.0
26/06:30pm 32.6 35.6 20.8 49 7.9 WSW 6 9 3 5 1005.6 - 0.0
26/06:00pm 32.5 34.1 20.7 49 7.9 WSW 13 17 7 9 1005.5 1005.0 0.0
26/05:30pm 35.4 36.1 17.1 33 11.8 NNE 9 13 5 7 1005.3 - 0.0
26/05:00pm 35.7 36.2 17.4 33 11.8 N 11 15 6 8 1004.9 - 0.0
26/04:30pm 35.7 35.8 17.4 33 11.8 N 13 20 7 11 1005.1 - 0.0
26/04:00pm 37.5 37.7 18.5 32 12.5 N 15 20 8 11 1005.3 - 0.0
26/03:30pm 34.9 33.0 18.5 38 10.7 NNE 26 41 14 22 1005.7 - 0.0
26/03:00pm 37.8 37.5 18.3 32 12.9 NNE 17 33 9 18 1005.9 1005.4 0.0
26/02:30pm 35.8 36.7 19.3 38 11.0 NE 13 20 7 11 1006.4 - 0.0
26/02:00pm 36.9 37.6 18.9 34 11.9 NE 13 20 7 11 1006.9 - 0.0
26/01:30pm 35.9 35.9 20.2 40 10.5 E 20 26 11 14 1007.3 - 0.0
26/01:00pm 35.6 37.2 20.7 41 10.1 E 13 28 7 15 1007.7 - 0.0
26/12:30pm 35.9 37.3 21.0 42 10.1 ENE 15 20 8 11 1008.3 - 0.0
26/12:00pm 34.8 36.2 20.4 43 9.7 ENE 13 26 7 14 1008.8 1008.2 0.0
26/11:30am 34.2 35.5 20.9 45 9.0 NE 15 20 8 11 1009.5 - 0.0
26/11:00am 32.8 33.8 20.3 47 8.3 ESE 15 26 8 14 1010.0 - 0.0
26/10:30am 32.8 35.1 21.3 50 7.8 E 11 17 6 9 1010.2 - 0.0
26/10:00am 31.8 33.2 21.0 52 7.3 ESE 15 22 8 12 1010.7 - 0.0
26/09:30am 29.8 33.0 23.0 67 4.7 E 11 17 6 9 1010.9 - 0.0
26/09:00am 27.8 32.3 23.0 75 3.3 NE 4 13 2 7 1011.2 1010.6 0.2
26/08:30am 26.7 30.8 23.2 81 2.4 SSW 7 11 4 6 1011.2 - 0.2
26/08:00am 26.0 29.6 23.1 84 2.0 SW 9 11 5 6 1011.0 - 0.2
26/07:30am 25.5 29.4 23.0 86 1.7 SSW 7 9 4 5 1010.8 - 0.2
26/07:00am 25.0 28.8 22.7 87 1.6 S 7 9 4 5 1010.4 - 0.2
26/06:30am 24.9 28.8 22.6 87 1.6 S 6 7 3 4 1009.8 - 0.2
26/06:00am 24.8 28.5 22.5 87 1.6 SSW 7 9 4 5 1009.3 1008.7 0.2
26/05:30am 24.9 28.5 22.4 86 1.7 SSW 7 11 4 6 1009.0 - 0.2
26/05:00am 24.9 28.1 22.4 86 1.7 SSW 9 11 5 6 1008.8 - 0.2
26/04:30am 24.9 27.8 22.4 86 1.7 S 11 17 6 9 1008.2 - 0.2
26/04:00am 24.7 25.4 22.2 86 1.7 S 22 33 12 18 1008.0 - 0.2
26/03:30am 25.8 29.0 21.7 78 2.7 NNE 7 13 4 7 1007.3 - 0.2
26/03:00am 25.8 26.8 21.7 78 2.7 NNE 19 24 10 13 1007.3 1006.7 0.2
26/02:30am 25.9 27.9 21.6 77 2.9 NNE 13 19 7 10 1007.4 - 0.2
26/02:00am 26.0 28.1 21.7 77 2.9 N 13 20 7 11 1008.0 - 0.2
26/01:30am 25.9 29.3 22.0 79 2.6 N 7 11 4 6 1008.5 - 0.2
26/01:00am 25.2 29.2 22.7 86 1.7 NNW 6 7 3 4 1009.3 - 0.2
26/12:30am 25.4 30.5 22.7 85 1.8 CALM 0 2 0 1 1010.1 - 0.2
26/12:00am 25.3 29.4 22.2 83 2.1 W 4 7 2 4 1010.7 1010.1 0.2
 
Date/Time
CST
Temp
°C
App
Temp
°C
Dew
Point
Rel
Hum
%
Delta-T
°C
Wind Press
QNH
hPa
Press
MSL
hPa
Rain
since 9 am
mm
Dir
 
Spd
km/h
Gust
km/h
Spd
kts
Gust
kts
25/11:30pm 25.4 28.9 22.1 82 2.2 WSW 7 9 4 5 1010.7 - 0.2
25/11:00pm 25.2 28.3 22.1 83 2.1 WSW 9 13 5 7 1010.8 - 0.2
25/10:30pm 25.2 27.2 22.3 84 1.9 S 15 19 8 10 1010.9 - 0.2
25/10:00pm 26.0 28.1 22.5 81 2.4 SSW 15 19 8 10 1010.6 - 0.2
25/09:30pm 27.4 27.4 21.0 68 4.2 S 22 30 12 16 1010.6 - 0.2
25/09:00pm 28.2 29.2 20.2 62 5.3 SE 15 20 8 11 1009.8 1009.2 0.2
25/08:30pm 27.8 28.7 20.1 63 5.1 NE 15 26 8 14 1008.9 - 0.2
25/08:00pm 28.8 27.8 19.7 58 6.0 NE 24 33 13 18 1008.2 - 0.2
25/07:30pm 30.2 33.0 23.6 67 4.6 NNE 15 28 8 15 1007.7 - 0.2
25/07:00pm 30.4 32.6 22.6 63 5.3 N 15 20 8 11 1007.4 - 0.2
25/06:30pm 31.3 33.7 22.3 58 6.1 N 13 15 7 8 1006.9 - 0.2
25/06:00pm 31.5 33.9 22.2 57 6.4 N 13 17 7 9 1005.9 1005.4 0.2
25/05:30pm 31.3 33.9 22.0 57 6.3 NNW 11 17 6 9 1005.7 - 0.2
25/05:00pm 31.0 33.3 22.0 58 6.1 N 13 22 7 12 1005.8 - 0.2
25/04:30pm 31.4 33.0 22.1 57 6.3 NNW 17 28 9 15 1006.2 - 0.2
25/04:00pm 31.5 32.7 22.2 57 6.3 NW 19 26 10 14 1006.5 - 0.2
25/03:30pm 31.8 33.2 22.5 58 6.4 NNW 19 26 10 14 1006.4 - 0.2
25/03:00pm 32.1 35.2 23.6 60 5.9 NW 13 17 7 9 1006.9 1006.3 0.2
25/02:30pm 31.6 35.6 23.7 63 5.5 NW 9 11 5 6 1007.5 - 0.2
25/02:00pm 31.4 35.0 23.8 64 5.3 W 11 13 6 7 1008.4 - 0.2
25/01:30pm 31.7 36.7 23.2 60 5.9 SSE 2 7 1 4 1008.8 - 0.2
25/01:00pm 32.2 35.5 23.2 59 6.2 SE 11 15 6 8 1009.1 - 0.2
25/12:30pm 32.4 35.9 23.6 59 6.1 SE 11 17 6 9 1008.7 - 0.2
25/12:00pm 32.1 37.2 23.3 59 6.1 ENE 2 9 1 5 1009.5 1008.9 0.2
25/11:30am 31.8 35.8 23.1 60 6.0 SE 7 11 4 6 1009.9 - 0.2
25/11:00am 32.1 36.8 23.9 62 5.7 SSE 6 11 3 6 1010.5 - 0.2
25/10:30am 31.6 36.4 24.2 65 5.2 ENE 6 11 3 6 1011.2 - 0.2
25/10:00am 31.2 35.9 24.3 66 4.8 E 7 11 4 6 1011.3 - 0.0
25/09:30am 30.9 35.7 24.1 67 4.7 ESE 6 9 3 5 1011.0 - 0.0
25/09:00am 30.0 35.3 23.7 69 4.4 SE 2 7 1 4 1010.9 1010.3 8.4
25/08:30am 29.4 34.0 23.1 69 4.3 NNW 4 9 2 5 1010.8 - 8.4
25/08:00am 28.5 32.2 23.2 73 3.6 NNW 9 11 5 6 1010.7 - 8.4
25/07:30am 27.2 31.1 23.0 78 2.9 N 7 9 4 5 1010.3 - 8.4
25/07:00am 26.6 31.0 23.5 83 2.1 N 6 7 3 4 1009.8 - 8.4
25/06:30am 25.7 29.5 23.4 87 1.6 NNE 9 11 5 6 1009.5 - 8.4
25/06:00am 25.9 28.9 23.4 86 1.7 N 13 19 7 10 1009.2 1008.6 8.4
25/05:30am 25.7 30.1 23.4 87 1.6 N 6 13 3 7 1009.0 - 8.4
25/05:00am 25.6 29.7 23.3 87 1.6 N 7 11 4 6 1008.6 - 8.4
25/04:30am 25.8 30.5 23.3 86 1.7 NNE 4 7 2 4 1008.2 - 8.4
25/04:00am 26.2 29.3 22.9 82 2.2 N 11 15 6 8 1008.0 - 8.4
25/03:30am 26.2 30.5 23.3 84 2.0 N 6 9 3 5 1008.0 - 8.4
25/03:00am 26.1 29.7 23.0 83 2.1 NNW 9 15 5 8 1007.9 1007.3 8.4
25/02:30am 25.9 29.6 23.2 85 1.8 NNW 9 11 5 6 1008.3 - 8.4
25/02:00am 26.0 29.1 23.5 86 1.7 NNW 13 20 7 11 1008.5 - 8.4
25/01:30am 26.1 30.6 24.0 88 1.4 N 7 9 4 5 1008.9 - 8.4
25/01:00am 25.9 30.4 23.9 89 1.4 N 7 11 4 6 1009.2 - 8.4
25/12:30am 25.8 30.4 24.2 91 1.1 N 7 9 4 5 1009.5 - 8.4
25/12:00am 26.0 30.6 24.2 90 1.2 NE 7 11 4 6 1010.3 1009.7 8.4
 
Date/Time
CST
Temp
°C
App
Temp
°C
Dew
Point
Rel
Hum
%
Delta-T
°C
Wind Press
QNH
hPa
Press
MSL
hPa
Rain
since 9 am
mm
Dir
 
Spd
km/h
Gust
km/h
Spd
kts
Gust
kts
24/11:30pm 26.0 30.6 24.2 90 1.2 NE 7 9 4 5 1010.6 - 8.4
24/11:00pm 25.9 30.7 24.1 90 1.2 NNW 6 7 3 4 1010.1 - 8.4
24/10:30pm 26.1 31.6 24.1 89 1.4 SE 2 6 1 3 1010.5 - 8.4
24/10:00pm 26.1 30.2 24.0 88 1.4 SSW 9 17 5 9 1010.4 - 8.4
24/09:30pm 26.2 30.8 24.2 89 1.4 N 7 11 4 6 1009.4 - 8.4
24/09:00pm 26.0 31.0 23.9 88 1.4 NNE 4 11 2 6 1009.0 1008.4 8.4
24/08:30pm 26.0 30.5 23.7 87 1.6 SE 6 13 3 7 1009.2 - 8.4
24/08:00pm 26.0 29.6 23.7 87 1.6 SE 11 15 6 8 1008.7 - 8.4
24/07:30pm 26.5 30.1 23.8 85 1.9 S 11 15 6 8 1008.3 - 8.4
24/07:00pm 26.2 29.2 23.3 84 2.0 W 13 15 7 8 1008.4 - 8.4
24/06:30pm 25.2 29.3 23.3 89 1.3 N 7 11 4 6 1008.8 - 8.4
24/06:00pm 25.2 28.8 23.1 88 1.4 ENE 9 17 5 9 1009.0 - 8.4
24/05:30pm 24.7 27.6 23.1 91 1.1 NNW 13 22 7 12 1009.2 - 8.4
24/05:00pm 25.0 27.5 23.1 89 1.3 NNE 15 24 8 13 1009.6 - 8.4
24/04:30pm 25.4 26.5 23.6 90 1.2 N 24 30 13 16 1008.6 - 8.4
24/04:00pm 26.3 25.7 23.4 84 2.0 NNE 32 43 17 23 1008.8 - 2.6
24/03:30pm 30.6 31.1 21.9 59 5.9 E 22 28 12 15 1008.4 - 2.4
24/03:00pm 32.4 35.9 22.8 57 6.6 WNW 9 13 5 7 1006.9 1006.3 2.4
24/02:30pm 31.8 35.3 23.6 62 5.7 W 11 15 6 8 1006.6 - 2.4
24/02:00pm 30.6 34.0 24.0 68 4.6 W 13 19 7 10 1007.6 - 2.4
24/01:30pm 29.3 31.2 22.8 68 4.4 W 17 24 9 13 1007.8 - 2.4
24/01:00pm 27.6 29.3 24.0 81 2.5 W 22 32 12 17 1009.2 - 2.2
24/12:46pm 28.4 28.1 22.6 71 3.9 W 28 46 15 25 1009.6 - 2.0
24/12:42pm 30.0 29.8 22.7 65 5.0 W 28 39 15 21 1009.6 - 1.4
24/12:30pm 35.6 37.4 22.5 46 9.1 SW 17 24 9 13 1009.7 - 0.0
24/12:00pm 36.3 37.7 22.5 45 9.6 SW 19 28 10 15 1010.2 1009.6 0.0
24/11:30am 36.8 38.4 22.9 44 9.7 SW 19 28 10 15 1010.8 - 0.0
24/11:00am 35.7 37.7 23.0 48 8.8 W 17 22 9 12 1011.2 - 0.0
24/10:30am 35.8 38.3 23.1 48 8.8 WSW 15 24 8 13 1011.3 - 0.0
24/10:00am 34.4 36.7 22.8 51 8.0 W 15 24 8 13 1011.7 - 0.0
24/09:30am 34.6 37.2 23.9 53 7.5 W 17 24 9 13 1011.6 - 0.0
24/09:00am 32.5 34.9 23.7 59 6.1 WNW 17 24 9 13 1011.9 1011.3 0.0
24/08:30am 31.7 34.7 25.3 69 4.5 NW 19 24 10 13 1011.6 - 0.0
24/08:00am 30.6 34.8 25.4 74 3.7 NNW 13 17 7 9 1011.7 - 0.0
24/07:30am 29.6 33.8 25.3 77 3.0 NNW 13 19 7 10 1011.8 - 0.0
24/07:00am 28.7 33.0 24.9 80 2.7 NNW 11 15 6 8 1011.1 - 0.0
24/06:30am 28.5 33.3 24.5 79 2.8 N 7 13 4 7 1010.8 - 0.0
24/06:00am 28.3 33.7 23.9 77 3.0 NNW 2 6 1 3 1010.5 1009.9 0.0
24/05:30am 28.5 33.2 24.3 78 2.9 NNW 7 9 4 5 1010.2 - 0.0
24/05:00am 28.6 33.1 23.7 75 3.4 N 6 9 3 5 1010.1 - 0.0
24/04:30am 28.6 32.6 23.7 75 3.4 W 9 13 5 7 1009.7 - 0.0
24/04:00am 28.4 33.5 23.3 74 3.5 NW 2 7 1 4 1009.8 - 0.0
24/03:30am 28.5 33.1 23.2 73 3.6 NNW 4 7 2 4 1009.9 - 0.0
24/03:00am 28.7 33.4 22.7 70 4.1 NW 2 7 1 4 1009.9 1009.3 0.0
24/02:30am 28.9 32.7 22.4 68 4.4 NNW 6 9 3 5 1009.7 - 0.0
24/02:00am 29.1 32.2 22.1 66 4.7 NNW 9 15 5 8 1009.8 - 0.0
24/01:30am 29.6 31.6 21.5 61 5.4 NNW 13 19 7 10 1010.0 - 0.0
24/01:00am 30.3 32.9 21.9 60 5.7 NW 11 19 6 10 1009.8 - 0.0
24/12:30am 30.4 33.9 21.8 60 5.8 NNW 6 11 3 6 1010.1 - 0.0
24/12:00am 30.6 34.2 20.5 54 6.7 WNW 2 7 1 4 1010.2 1009.6 0.0
 
Date/Time
CST
Temp
°C
App
Temp
°C
Dew
Point
Rel
Hum
%
Delta-T
°C
Wind Press
QNH
hPa
Press
MSL
hPa
Rain
since 9 am
mm
Dir
 
Spd
km/h
Gust
km/h
Spd
kts
Gust
kts
23/11:30pm 30.6 34.4 20.2 53 6.9 CALM 0 4 0 2 1010.0 - 0.0
23/11:00pm 30.7 32.7 20.0 52 7.1 NNW 9 17 5 9 1010.0 - 0.0
23/10:30pm 31.1 32.8 20.1 52 7.3 NNW 11 19 6 10 1009.8 - 0.0
23/10:00pm 31.6 33.2 19.9 50 7.7 NNW 11 15 6 8 1009.6 - 0.0
23/09:30pm 32.3 31.9 18.8 44 8.8 NNW 19 24 10 13 1009.4 - 0.0
23/09:00pm 33.0 34.7 18.4 42 9.5 WNW 7 11 4 6 1008.8 1008.2 0.0
23/08:30pm 33.8 35.0 18.3 39 10.1 NNW 9 15 5 8 1008.5 - 0.0
23/08:00pm 34.2 36.0 18.3 39 10.4 W 6 9 3 5 1008.1 - 0.0

Other Formats:

Comma delimited format used in spreadsheet applications
http://www.bom.gov.au/fwo/IDD60801/IDD60801.94130.axf

JavaScript Object Notation format (JSON) in row-major order
http://www.bom.gov.au/fwo/IDD60801/IDD60801.94130.json